sensor_id;sensor_type;location;lat;lon;timestamp;temperature;humidity
14670;DHT22;7423;48.722;9.350;2023-08-20T00:01:27;26.10;99.90
14670;DHT22;7423;48.722;9.350;2023-08-20T00:03:55;26.00;99.90
14670;DHT22;7423;48.722;9.350;2023-08-20T00:06:23;26.00;99.90
14670;DHT22;7423;48.722;9.350;2023-08-20T00:08:51;26.00;99.90
14670;DHT22;7423;48.722;9.350;2023-08-20T00:11:18;26.00;99.90
14670;DHT22;7423;48.722;9.350;2023-08-20T00:13:46;26.00;99.90
14670;DHT22;7423;48.722;9.350;2023-08-20T00:16:13;26.00;99.90
14670;DHT22;7423;48.722;9.350;2023-08-20T00:18:40;25.90;99.90
14670;DHT22;7423;48.722;9.350;2023-08-20T00:21:08;25.90;99.90
14670;DHT22;7423;48.722;9.350;2023-08-20T00:23:36;25.90;99.90
14670;DHT22;7423;48.722;9.350;2023-08-20T00:26:04;25.90;99.90
14670;DHT22;7423;48.722;9.350;2023-08-20T00:28:31;25.90;99.90
14670;DHT22;7423;48.722;9.350;2023-08-20T00:31:01;25.80;99.90
14670;DHT22;7423;48.722;9.350;2023-08-20T00:33:28;25.80;99.90
14670;DHT22;7423;48.722;9.350;2023-08-20T00:35:55;25.80;99.90
14670;DHT22;7423;48.722;9.350;2023-08-20T00:38:22;25.80;99.90
14670;DHT22;7423;48.722;9.350;2023-08-20T00:40:49;25.80;99.90
14670;DHT22;7423;48.722;9.350;2023-08-20T00:43:16;25.80;99.90
14670;DHT22;7423;48.722;9.350;2023-08-20T00:45:43;25.70;99.90
14670;DHT22;7423;48.722;9.350;2023-08-20T00:48:11;25.70;99.90
14670;DHT22;7423;48.722;9.350;2023-08-20T00:50:39;25.80;99.90
14670;DHT22;7423;48.722;9.350;2023-08-20T00:53:08;26.20;99.90
14670;DHT22;7423;48.722;9.350;2023-08-20T00:55:37;25.70;99.90
14670;DHT22;7423;48.722;9.350;2023-08-20T00:58:05;25.70;99.90
14670;DHT22;7423;48.722;9.350;2023-08-20T01:00:32;25.60;99.90
14670;DHT22;7423;48.722;9.350;2023-08-20T01:02:59;25.60;99.90
14670;DHT22;7423;48.722;9.350;2023-08-20T01:05:26;25.60;99.90
14670;DHT22;7423;48.722;9.350;2023-08-20T01:11:08;25.50;99.90
14670;DHT22;7423;48.722;9.350;2023-08-20T01:13:38;25.50;99.90
14670;DHT22;7423;48.722;9.350;2023-08-20T01:16:05;25.50;99.90
14670;DHT22;7423;48.722;9.350;2023-08-20T01:18:32;25.50;99.90
14670;DHT22;7423;48.722;9.350;2023-08-20T01:21:02;25.40;99.90
14670;DHT22;7423;48.722;9.350;2023-08-20T01:23:50;25.40;99.90
14670;DHT22;7423;48.722;9.350;2023-08-20T01:29:30;25.40;99.90
14670;DHT22;7423;48.722;9.350;2023-08-20T01:31:58;25.40;99.90
14670;DHT22;7423;48.722;9.350;2023-08-20T01:34:26;25.40;99.90
14670;DHT22;7423;48.722;9.350;2023-08-20T01:36:53;25.30;99.90
14670;DHT22;7423;48.722;9.350;2023-08-20T01:39:20;25.30;99.90
14670;DHT22;7423;48.722;9.350;2023-08-20T01:41:47;25.20;99.90
14670;DHT22;7423;48.722;9.350;2023-08-20T01:44:14;25.20;99.90
14670;DHT22;7423;48.722;9.350;2023-08-20T01:46:41;25.20;99.90
14670;DHT22;7423;48.722;9.350;2023-08-20T01:49:08;25.30;99.90
14670;DHT22;7423;48.722;9.350;2023-08-20T01:51:35;25.20;99.90
14670;DHT22;7423;48.722;9.350;2023-08-20T01:54:03;25.20;99.90
14670;DHT22;7423;48.722;9.350;2023-08-20T01:56:30;25.20;99.90
14670;DHT22;7423;48.722;9.350;2023-08-20T01:58:57;25.20;99.90
14670;DHT22;7423;48.722;9.350;2023-08-20T02:01:25;25.10;99.90
14670;DHT22;7423;48.722;9.350;2023-08-20T02:03:52;25.10;99.90
14670;DHT22;7423;48.722;9.350;2023-08-20T02:06:19;25.20;99.90
14670;DHT22;7423;48.722;9.350;2023-08-20T02:08:46;25.10;99.90
14670;DHT22;7423;48.722;9.350;2023-08-20T02:11:14;25.10;99.90
14670;DHT22;7423;48.722;9.350;2023-08-20T02:13:40;25.10;99.90
14670;DHT22;7423;48.722;9.350;2023-08-20T02:16:08;25.10;99.90
14670;DHT22;7423;48.722;9.350;2023-08-20T02:18:34;25.00;99.90
14670;DHT22;7423;48.722;9.350;2023-08-20T02:21:01;25.10;99.90
14670;DHT22;7423;48.722;9.350;2023-08-20T02:23:29;25.00;99.90
14670;DHT22;7423;48.722;9.350;2023-08-20T02:25:56;25.00;99.90
14670;DHT22;7423;48.722;9.350;2023-08-20T02:28:24;25.00;99.90
14670;DHT22;7423;48.722;9.350;2023-08-20T02:30:51;25.00;99.90
14670;DHT22;7423;48.722;9.350;2023-08-20T02:33:18;25.00;99.90
14670;DHT22;7423;48.722;9.350;2023-08-20T02:35:45;25.00;99.90
14670;DHT22;7423;48.722;9.350;2023-08-20T02:38:12;25.00;99.90
14670;DHT22;7423;48.722;9.350;2023-08-20T02:40:40;24.90;99.90
14670;DHT22;7423;48.722;9.350;2023-08-20T02:43:09;25.00;99.90
14670;DHT22;7423;48.722;9.350;2023-08-20T02:45:43;24.90;99.90
14670;DHT22;7423;48.722;9.350;2023-08-20T02:48:10;24.90;99.90
14670;DHT22;7423;48.722;9.350;2023-08-20T02:50:38;24.90;99.90
14670;DHT22;7423;48.722;9.350;2023-08-20T02:53:05;24.90;99.90
14670;DHT22;7423;48.722;9.350;2023-08-20T02:55:33;24.90;99.90
14670;DHT22;7423;48.722;9.350;2023-08-20T02:58:00;24.90;99.90
14670;DHT22;7423;48.722;9.350;2023-08-20T03:00:28;24.90;99.90
14670;DHT22;7423;48.722;9.350;2023-08-20T03:02:56;24.80;99.90
14670;DHT22;7423;48.722;9.350;2023-08-20T03:05:23;24.80;99.90
14670;DHT22;7423;48.722;9.350;2023-08-20T03:07:50;24.90;99.90
14670;DHT22;7423;48.722;9.350;2023-08-20T03:10:17;24.90;99.90
14670;DHT22;7423;48.722;9.350;2023-08-20T03:12:44;24.80;99.90
14670;DHT22;7423;48.722;9.350;2023-08-20T03:15:11;24.80;99.90
14670;DHT22;7423;48.722;9.350;2023-08-20T03:17:38;24.80;99.90
14670;DHT22;7423;48.722;9.350;2023-08-20T03:20:06;24.70;99.90
14670;DHT22;7423;48.722;9.350;2023-08-20T03:22:36;24.70;99.90
14670;DHT22;7423;48.722;9.350;2023-08-20T03:25:05;24.70;99.90
14670;DHT22;7423;48.722;9.350;2023-08-20T03:27:32;24.70;99.90
14670;DHT22;7423;48.722;9.350;2023-08-20T03:30:00;24.60;99.90
14670;DHT22;7423;48.722;9.350;2023-08-20T03:32:27;24.60;99.90
14670;DHT22;7423;48.722;9.350;2023-08-20T03:34:54;24.60;99.90
14670;DHT22;7423;48.722;9.350;2023-08-20T03:37:22;24.60;99.90
14670;DHT22;7423;48.722;9.350;2023-08-20T03:39:49;24.60;99.90
14670;DHT22;7423;48.722;9.350;2023-08-20T03:42:16;24.60;99.90
14670;DHT22;7423;48.722;9.350;2023-08-20T03:44:43;24.60;99.90
14670;DHT22;7423;48.722;9.350;2023-08-20T03:47:10;24.60;99.90
14670;DHT22;7423;48.722;9.350;2023-08-20T03:49:37;24.60;99.90
14670;DHT22;7423;48.722;9.350;2023-08-20T03:52:05;24.50;99.90
14670;DHT22;7423;48.722;9.350;2023-08-20T03:54:33;24.50;99.90
14670;DHT22;7423;48.722;9.350;2023-08-20T03:57:00;24.50;99.90
14670;DHT22;7423;48.722;9.350;2023-08-20T03:59:28;24.50;99.90
14670;DHT22;7423;48.722;9.350;2023-08-20T04:01:55;24.50;99.90
14670;DHT22;7423;48.722;9.350;2023-08-20T04:04:22;24.60;99.90
14670;DHT22;7423;48.722;9.350;2023-08-20T04:06:49;24.40;99.90
14670;DHT22;7423;48.722;9.350;2023-08-20T04:09:17;24.40;99.90
14670;DHT22;7423;48.722;9.350;2023-08-20T04:11:43;24.70;99.90
14670;DHT22;7423;48.722;9.350;2023-08-20T04:14:11;24.40;99.90
14670;DHT22;7423;48.722;9.350;2023-08-20T04:16:38;24.50;99.90
14670;DHT22;7423;48.722;9.350;2023-08-20T04:19:05;24.40;99.90
14670;DHT22;7423;48.722;9.350;2023-08-20T04:21:32;24.40;99.90
14670;DHT22;7423;48.722;9.350;2023-08-20T04:23:59;24.40;99.90
14670;DHT22;7423;48.722;9.350;2023-08-20T04:26:26;24.30;99.90
14670;DHT22;7423;48.722;9.350;2023-08-20T04:28:53;24.30;99.90
14670;DHT22;7423;48.722;9.350;2023-08-20T04:31:20;24.30;99.90
14670;DHT22;7423;48.722;9.350;2023-08-20T04:33:47;24.30;99.90
14670;DHT22;7423;48.722;9.350;2023-08-20T04:36:14;24.20;99.90
14670;DHT22;7423;48.722;9.350;2023-08-20T04:38:41;24.20;99.90
14670;DHT22;7423;48.722;9.350;2023-08-20T04:41:08;24.20;99.90
14670;DHT22;7423;48.722;9.350;2023-08-20T04:43:35;24.20;99.90
14670;DHT22;7423;48.722;9.350;2023-08-20T04:46:02;24.20;99.90
14670;DHT22;7423;48.722;9.350;2023-08-20T04:48:29;24.20;99.90
14670;DHT22;7423;48.722;9.350;2023-08-20T04:50:56;24.20;99.90
14670;DHT22;7423;48.722;9.350;2023-08-20T04:53:23;24.30;99.90
14670;DHT22;7423;48.722;9.350;2023-08-20T04:55:50;24.20;99.90
14670;DHT22;7423;48.722;9.350;2023-08-20T04:58:17;24.30;99.90
14670;DHT22;7423;48.722;9.350;2023-08-20T05:00:44;24.20;99.90
14670;DHT22;7423;48.722;9.350;2023-08-20T05:03:11;24.20;99.90
14670;DHT22;7423;48.722;9.350;2023-08-20T05:05:38;24.20;99.90
14670;DHT22;7423;48.722;9.350;2023-08-20T05:08:05;24.20;99.90
14670;DHT22;7423;48.722;9.350;2023-08-20T05:10:32;24.10;99.90
14670;DHT22;7423;48.722;9.350;2023-08-20T05:12:59;24.10;99.90
14670;DHT22;7423;48.722;9.350;2023-08-20T05:15:26;23.70;99.90
14670;DHT22;7423;48.722;9.350;2023-08-20T05:17:53;24.10;99.90
14670;DHT22;7423;48.722;9.350;2023-08-20T05:20:21;24.10;99.90
14670;DHT22;7423;48.722;9.350;2023-08-20T05:22:47;24.10;99.90
14670;DHT22;7423;48.722;9.350;2023-08-20T05:25:14;24.10;99.90
14670;DHT22;7423;48.722;9.350;2023-08-20T05:27:41;24.10;99.90
14670;DHT22;7423;48.722;9.350;2023-08-20T05:30:08;24.10;99.90
14670;DHT22;7423;48.722;9.350;2023-08-20T05:32:36;24.10;99.90
14670;DHT22;7423;48.722;9.350;2023-08-20T05:35:05;24.10;99.90
14670;DHT22;7423;48.722;9.350;2023-08-20T05:37:32;24.10;99.90
14670;DHT22;7423;48.722;9.350;2023-08-20T05:39:59;24.10;99.90
14670;DHT22;7423;48.722;9.350;2023-08-20T05:42:26;24.20;99.90
14670;DHT22;7423;48.722;9.350;2023-08-20T05:44:53;24.20;99.90
14670;DHT22;7423;48.722;9.350;2023-08-20T05:47:20;24.20;99.90
14670;DHT22;7423;48.722;9.350;2023-08-20T05:49:47;24.30;99.90
14670;DHT22;7423;48.722;9.350;2023-08-20T05:52:14;24.30;99.90
14670;DHT22;7423;48.722;9.350;2023-08-20T05:54:41;24.30;99.90
14670;DHT22;7423;48.722;9.350;2023-08-20T05:57:08;24.30;99.90
14670;DHT22;7423;48.722;9.350;2023-08-20T05:59:35;24.30;99.90
14670;DHT22;7423;48.722;9.350;2023-08-20T06:02:02;24.30;99.90
14670;DHT22;7423;48.722;9.350;2023-08-20T06:04:30;24.30;99.90
14670;DHT22;7423;48.722;9.350;2023-08-20T06:06:57;24.30;99.90
14670;DHT22;7423;48.722;9.350;2023-08-20T06:09:25;24.30;99.90
14670;DHT22;7423;48.722;9.350;2023-08-20T06:11:51;24.30;99.90
14670;DHT22;7423;48.722;9.350;2023-08-20T06:14:19;24.30;99.90
14670;DHT22;7423;48.722;9.350;2023-08-20T06:16:46;24.30;99.90
14670;DHT22;7423;48.722;9.350;2023-08-20T06:19:13;24.30;99.90
14670;DHT22;7423;48.722;9.350;2023-08-20T06:21:40;24.30;99.90
14670;DHT22;7423;48.722;9.350;2023-08-20T06:24:07;24.40;99.90
14670;DHT22;7423;48.722;9.350;2023-08-20T06:26:35;24.40;99.90
14670;DHT22;7423;48.722;9.350;2023-08-20T06:29:02;24.40;99.90
14670;DHT22;7423;48.722;9.350;2023-08-20T06:31:29;24.40;99.90
14670;DHT22;7423;48.722;9.350;2023-08-20T06:33:56;24.40;99.90
14670;DHT22;7423;48.722;9.350;2023-08-20T06:36:23;24.50;99.90
14670;DHT22;7423;48.722;9.350;2023-08-20T06:38:50;24.40;99.90
14670;DHT22;7423;48.722;9.350;2023-08-20T06:41:17;24.40;99.90
14670;DHT22;7423;48.722;9.350;2023-08-20T06:43:44;24.50;99.90
14670;DHT22;7423;48.722;9.350;2023-08-20T06:46:11;24.50;99.90
14670;DHT22;7423;48.722;9.350;2023-08-20T06:48:40;24.50;99.90
14670;DHT22;7423;48.722;9.350;2023-08-20T06:51:13;24.60;99.90
14670;DHT22;7423;48.722;9.350;2023-08-20T06:53:42;24.60;99.90
14670;DHT22;7423;48.722;9.350;2023-08-20T06:56:10;24.60;99.90
14670;DHT22;7423;48.722;9.350;2023-08-20T06:58:42;24.60;99.90
14670;DHT22;7423;48.722;9.350;2023-08-20T07:01:09;24.60;99.90
14670;DHT22;7423;48.722;9.350;2023-08-20T07:03:40;24.70;99.90
14670;DHT22;7423;48.722;9.350;2023-08-20T07:06:09;24.70;99.90
14670;DHT22;7423;48.722;9.350;2023-08-20T07:08:37;24.70;99.90
14670;DHT22;7423;48.722;9.350;2023-08-20T07:11:07;24.80;99.90
14670;DHT22;7423;48.722;9.350;2023-08-20T07:13:34;24.80;99.90
14670;DHT22;7423;48.722;9.350;2023-08-20T07:16:01;24.80;99.90
14670;DHT22;7423;48.722;9.350;2023-08-20T07:18:29;24.90;99.90
14670;DHT22;7423;48.722;9.350;2023-08-20T07:20:56;24.90;99.90
14670;DHT22;7423;48.722;9.350;2023-08-20T07:23:23;24.90;99.90
14670;DHT22;7423;48.722;9.350;2023-08-20T07:25:50;24.90;99.90
14670;DHT22;7423;48.722;9.350;2023-08-20T07:28:19;25.00;99.90
14670;DHT22;7423;48.722;9.350;2023-08-20T07:31:15;25.10;99.90
14670;DHT22;7423;48.722;9.350;2023-08-20T07:33:46;25.00;99.90
14670;DHT22;7423;48.722;9.350;2023-08-20T07:36:16;25.00;99.90
14670;DHT22;7423;48.722;9.350;2023-08-20T07:38:45;25.00;99.90
14670;DHT22;7423;48.722;9.350;2023-08-20T07:41:12;25.10;99.90
14670;DHT22;7423;48.722;9.350;2023-08-20T07:43:40;25.20;99.90
14670;DHT22;7423;48.722;9.350;2023-08-20T07:46:09;25.30;99.90
14670;DHT22;7423;48.722;9.350;2023-08-20T07:48:39;25.30;99.90
14670;DHT22;7423;48.722;9.350;2023-08-20T07:51:07;25.30;99.90
14670;DHT22;7423;48.722;9.350;2023-08-20T07:53:34;25.30;99.90
14670;DHT22;7423;48.722;9.350;2023-08-20T07:56:01;25.30;99.90
14670;DHT22;7423;48.722;9.350;2023-08-20T07:58:30;25.40;99.90
14670;DHT22;7423;48.722;9.350;2023-08-20T08:00:57;25.40;99.90
14670;DHT22;7423;48.722;9.350;2023-08-20T08:03:25;25.60;99.90
14670;DHT22;7423;48.722;9.350;2023-08-20T08:05:55;25.50;99.90
14670;DHT22;7423;48.722;9.350;2023-08-20T08:08:23;25.50;99.90
14670;DHT22;7423;48.722;9.350;2023-08-20T08:10:50;25.60;99.90
14670;DHT22;7423;48.722;9.350;2023-08-20T08:13:22;25.60;99.90
14670;DHT22;7423;48.722;9.350;2023-08-20T08:15:50;25.70;99.90
14670;DHT22;7423;48.722;9.350;2023-08-20T08:18:18;25.80;99.90
14670;DHT22;7423;48.722;9.350;2023-08-20T08:20:46;25.80;99.90
14670;DHT22;7423;48.722;9.350;2023-08-20T08:23:13;25.90;99.90
14670;DHT22;7423;48.722;9.350;2023-08-20T08:25:41;26.00;99.90
14670;DHT22;7423;48.722;9.350;2023-08-20T08:28:08;25.90;99.90
14670;DHT22;7423;48.722;9.350;2023-08-20T08:30:37;25.90;99.90
14670;DHT22;7423;48.722;9.350;2023-08-20T08:33:04;26.00;99.90
14670;DHT22;7423;48.722;9.350;2023-08-20T08:35:32;26.00;99.90
14670;DHT22;7423;48.722;9.350;2023-08-20T08:37:59;26.30;99.90
14670;DHT22;7423;48.722;9.350;2023-08-20T08:40:28;26.30;99.90
14670;DHT22;7423;48.722;9.350;2023-08-20T08:42:57;26.30;99.90
14670;DHT22;7423;48.722;9.350;2023-08-20T08:45:26;26.30;99.90
14670;DHT22;7423;48.722;9.350;2023-08-20T08:47:58;26.30;99.90
14670;DHT22;7423;48.722;9.350;2023-08-20T08:50:32;26.40;99.90
14670;DHT22;7423;48.722;9.350;2023-08-20T08:53:02;26.50;99.90
14670;DHT22;7423;48.722;9.350;2023-08-20T08:55:33;26.60;99.90
14670;DHT22;7423;48.722;9.350;2023-08-20T08:58:01;26.70;99.90
14670;DHT22;7423;48.722;9.350;2023-08-20T09:00:30;26.80;99.90
14670;DHT22;7423;48.722;9.350;2023-08-20T09:02:59;26.90;99.90
14670;DHT22;7423;48.722;9.350;2023-08-20T09:05:27;27.00;99.90
14670;DHT22;7423;48.722;9.350;2023-08-20T09:07:57;27.10;99.90
14670;DHT22;7423;48.722;9.350;2023-08-20T09:10:27;27.10;99.90
14670;DHT22;7423;48.722;9.350;2023-08-20T09:12:56;27.20;99.90
14670;DHT22;7423;48.722;9.350;2023-08-20T09:15:31;27.50;99.90
14670;DHT22;7423;48.722;9.350;2023-08-20T09:18:01;27.40;99.90
14670;DHT22;7423;48.722;9.350;2023-08-20T09:20:37;27.40;99.90
14670;DHT22;7423;48.722;9.350;2023-08-20T09:23:11;27.40;99.90
14670;DHT22;7423;48.722;9.350;2023-08-20T09:25:40;27.40;99.90
14670;DHT22;7423;48.722;9.350;2023-08-20T09:28:08;27.40;99.90
14670;DHT22;7423;48.722;9.350;2023-08-20T09:30:36;27.50;99.90
14670;DHT22;7423;48.722;9.350;2023-08-20T09:33:12;27.50;99.90
14670;DHT22;7423;48.722;9.350;2023-08-20T09:35:52;27.60;99.90
14670;DHT22;7423;48.722;9.350;2023-08-20T09:38:22;27.70;99.90
14670;DHT22;7423;48.722;9.350;2023-08-20T09:40:53;27.70;99.90
14670;DHT22;7423;48.722;9.350;2023-08-20T09:43:30;27.70;99.90
14670;DHT22;7423;48.722;9.350;2023-08-20T09:45:59;27.40;99.90
14670;DHT22;7423;48.722;9.350;2023-08-20T09:48:33;27.80;99.90
14670;DHT22;7423;48.722;9.350;2023-08-20T09:51:10;27.90;99.90
14670;DHT22;7423;48.722;9.350;2023-08-20T09:56:30;28.10;99.90
14670;DHT22;7423;48.722;9.350;2023-08-20T09:58:58;28.20;99.90
14670;DHT22;7423;48.722;9.350;2023-08-20T10:01:27;28.30;99.90
14670;DHT22;7423;48.722;9.350;2023-08-20T10:03:54;28.40;99.90
14670;DHT22;7423;48.722;9.350;2023-08-20T10:06:23;28.50;99.90
14670;DHT22;7423;48.722;9.350;2023-08-20T10:08:51;28.60;99.90
14670;DHT22;7423;48.722;9.350;2023-08-20T10:11:18;28.60;99.90
14670;DHT22;7423;48.722;9.350;2023-08-20T10:13:45;28.60;99.90
14670;DHT22;7423;48.722;9.350;2023-08-20T10:16:12;28.60;99.90
14670;DHT22;7423;48.722;9.350;2023-08-20T10:18:40;28.60;99.90
14670;DHT22;7423;48.722;9.350;2023-08-20T10:21:08;28.60;99.90
14670;DHT22;7423;48.722;9.350;2023-08-20T10:23:40;28.60;99.90
14670;DHT22;7423;48.722;9.350;2023-08-20T10:26:10;28.70;99.90
14670;DHT22;7423;48.722;9.350;2023-08-20T10:28:37;28.80;99.90
14670;DHT22;7423;48.722;9.350;2023-08-20T10:31:10;28.80;99.90
14670;DHT22;7423;48.722;9.350;2023-08-20T10:33:49;28.90;99.90
14670;DHT22;7423;48.722;9.350;2023-08-20T10:36:22;29.10;99.90
14670;DHT22;7423;48.722;9.350;2023-08-20T10:38:52;29.00;99.90
14670;DHT22;7423;48.722;9.350;2023-08-20T10:41:28;29.20;99.90
14670;DHT22;7423;48.722;9.350;2023-08-20T10:43:59;29.20;99.90
14670;DHT22;7423;48.722;9.350;2023-08-20T10:46:29;29.30;99.90
14670;DHT22;7423;48.722;9.350;2023-08-20T10:49:01;29.40;99.90
14670;DHT22;7423;48.722;9.350;2023-08-20T10:51:38;29.50;99.90
14670;DHT22;7423;48.722;9.350;2023-08-20T10:54:08;29.70;99.90
14670;DHT22;7423;48.722;9.350;2023-08-20T10:56:47;30.10;99.90
14670;DHT22;7423;48.722;9.350;2023-08-20T10:59:23;30.60;99.90
14670;DHT22;7423;48.722;9.350;2023-08-20T11:01:56;31.20;99.90
14670;DHT22;7423;48.722;9.350;2023-08-20T11:04:28;32.00;99.90
14670;DHT22;7423;48.722;9.350;2023-08-20T11:07:01;32.70;99.90
14670;DHT22;7423;48.722;9.350;2023-08-20T11:09:29;33.60;99.90
14670;DHT22;7423;48.722;9.350;2023-08-20T11:11:58;34.70;99.90
14670;DHT22;7423;48.722;9.350;2023-08-20T11:14:25;35.90;99.90
14670;DHT22;7423;48.722;9.350;2023-08-20T11:16:53;37.20;99.90
14670;DHT22;7423;48.722;9.350;2023-08-20T11:19:23;38.20;99.00
14670;DHT22;7423;48.722;9.350;2023-08-20T11:21:50;39.20;96.90
14670;DHT22;7423;48.722;9.350;2023-08-20T11:24:18;40.10;95.10
14670;DHT22;7423;48.722;9.350;2023-08-20T11:26:48;40.70;93.20
14670;DHT22;7423;48.722;9.350;2023-08-20T11:29:18;41.10;91.50
14670;DHT22;7423;48.722;9.350;2023-08-20T11:31:49;41.00;90.80
14670;DHT22;7423;48.722;9.350;2023-08-20T11:34:20;40.60;90.80
14670;DHT22;7423;48.722;9.350;2023-08-20T11:36:48;40.10;90.90
14670;DHT22;7423;48.722;9.350;2023-08-20T11:39:16;39.60;91.00
14670;DHT22;7423;48.722;9.350;2023-08-20T11:41:44;39.10;91.70
14670;DHT22;7423;48.722;9.350;2023-08-20T11:44:19;38.50;92.30
14670;DHT22;7423;48.722;9.350;2023-08-20T11:46:48;38.10;92.50
14670;DHT22;7423;48.722;9.350;2023-08-20T11:49:16;37.70;93.40
14670;DHT22;7423;48.722;9.350;2023-08-20T11:51:48;37.20;94.20
14670;DHT22;7423;48.722;9.350;2023-08-20T11:54:18;36.80;94.60
14670;DHT22;7423;48.722;9.350;2023-08-20T11:56:47;36.40;95.20
14670;DHT22;7423;48.722;9.350;2023-08-20T11:59:21;36.10;95.80
14670;DHT22;7423;48.722;9.350;2023-08-20T12:01:51;35.70;96.20
14670;DHT22;7423;48.722;9.350;2023-08-20T12:04:23;35.30;96.60
14670;DHT22;7423;48.722;9.350;2023-08-20T12:07:14;35.10;97.20
14670;DHT22;7423;48.722;9.350;2023-08-20T12:09:42;34.80;97.40
14670;DHT22;7423;48.722;9.350;2023-08-20T12:12:12;34.50;97.30
14670;DHT22;7423;48.722;9.350;2023-08-20T12:14:39;34.30;97.80
14670;DHT22;7423;48.722;9.350;2023-08-20T12:17:09;34.10;97.70
14670;DHT22;7423;48.722;9.350;2023-08-20T12:19:37;33.90;98.30
14670;DHT22;7423;48.722;9.350;2023-08-20T12:22:06;33.70;98.40
14670;DHT22;7423;48.722;9.350;2023-08-20T12:24:35;33.60;98.90
14670;DHT22;7423;48.722;9.350;2023-08-20T12:27:06;33.40;99.40
14670;DHT22;7423;48.722;9.350;2023-08-20T12:29:34;33.30;99.80
14670;DHT22;7423;48.722;9.350;2023-08-20T12:32:02;33.10;99.90
14670;DHT22;7423;48.722;9.350;2023-08-20T12:34:31;33.00;99.90
14670;DHT22;7423;48.722;9.350;2023-08-20T12:36:59;33.00;99.90
14670;DHT22;7423;48.722;9.350;2023-08-20T12:39:28;32.80;99.90
14670;DHT22;7423;48.722;9.350;2023-08-20T12:41:57;32.80;99.90
14670;DHT22;7423;48.722;9.350;2023-08-20T12:44:25;32.60;99.90
14670;DHT22;7423;48.722;9.350;2023-08-20T12:46:53;32.60;99.90
14670;DHT22;7423;48.722;9.350;2023-08-20T12:49:20;32.50;99.90
14670;DHT22;7423;48.722;9.350;2023-08-20T12:51:48;32.50;99.90
14670;DHT22;7423;48.722;9.350;2023-08-20T12:54:15;32.50;99.90
14670;DHT22;7423;48.722;9.350;2023-08-20T12:56:44;32.50;99.90
14670;DHT22;7423;48.722;9.350;2023-08-20T12:59:11;32.40;99.90
14670;DHT22;7423;48.722;9.350;2023-08-20T13:01:41;32.40;99.90
14670;DHT22;7423;48.722;9.350;2023-08-20T13:04:13;32.40;99.90
14670;DHT22;7423;48.722;9.350;2023-08-20T13:06:50;32.30;99.90
14670;DHT22;7423;48.722;9.350;2023-08-20T13:09:19;32.30;99.90
14670;DHT22;7423;48.722;9.350;2023-08-20T13:11:49;32.30;99.90
14670;DHT22;7423;48.722;9.350;2023-08-20T13:14:18;32.20;99.90
14670;DHT22;7423;48.722;9.350;2023-08-20T13:16:50;32.30;99.90
14670;DHT22;7423;48.722;9.350;2023-08-20T13:19:18;32.20;99.90
14670;DHT22;7423;48.722;9.350;2023-08-20T13:21:47;32.30;99.90
14670;DHT22;7423;48.722;9.350;2023-08-20T13:24:25;32.30;99.90
14670;DHT22;7423;48.722;9.350;2023-08-20T13:27:01;32.30;99.90
14670;DHT22;7423;48.722;9.350;2023-08-20T13:29:45;32.30;99.90
14670;DHT22;7423;48.722;9.350;2023-08-20T13:32:30;32.30;99.90
14670;DHT22;7423;48.722;9.350;2023-08-20T13:35:19;32.30;99.90
14670;DHT22;7423;48.722;9.350;2023-08-20T13:37:47;32.30;99.90
14670;DHT22;7423;48.722;9.350;2023-08-20T13:40:14;32.30;99.90
14670;DHT22;7423;48.722;9.350;2023-08-20T13:42:41;32.30;99.90
14670;DHT22;7423;48.722;9.350;2023-08-20T13:45:08;32.30;99.90
14670;DHT22;7423;48.722;9.350;2023-08-20T13:47:35;32.30;99.90
14670;DHT22;7423;48.722;9.350;2023-08-20T13:50:02;32.30;99.90
14670;DHT22;7423;48.722;9.350;2023-08-20T13:52:31;32.40;99.90
14670;DHT22;7423;48.722;9.350;2023-08-20T13:54:58;32.40;99.90
14670;DHT22;7423;48.722;9.350;2023-08-20T13:57:25;32.30;99.90
14670;DHT22;7423;48.722;9.350;2023-08-20T13:59:52;32.30;99.90
14670;DHT22;7423;48.722;9.350;2023-08-20T14:02:18;32.30;99.90
14670;DHT22;7423;48.722;9.350;2023-08-20T14:04:45;32.30;99.90
14670;DHT22;7423;48.722;9.350;2023-08-20T14:07:12;32.40;99.90
14670;DHT22;7423;48.722;9.350;2023-08-20T14:09:39;32.50;99.90
14670;DHT22;7423;48.722;9.350;2023-08-20T14:12:07;32.40;99.90
14670;DHT22;7423;48.722;9.350;2023-08-20T14:14:34;32.40;99.90
14670;DHT22;7423;48.722;9.350;2023-08-20T14:17:01;32.40;99.90
14670;DHT22;7423;48.722;9.350;2023-08-20T14:19:29;32.30;99.90
14670;DHT22;7423;48.722;9.350;2023-08-20T14:21:56;32.30;99.60
14670;DHT22;7423;48.722;9.350;2023-08-20T14:24:23;32.30;99.60
14670;DHT22;7423;48.722;9.350;2023-08-20T14:26:50;32.30;99.90
14670;DHT22;7423;48.722;9.350;2023-08-20T14:29:16;32.30;99.90
14670;DHT22;7423;48.722;9.350;2023-08-20T14:31:43;32.30;99.90
14670;DHT22;7423;48.722;9.350;2023-08-20T14:34:10;32.30;99.90
14670;DHT22;7423;48.722;9.350;2023-08-20T14:36:37;32.30;99.90
14670;DHT22;7423;48.722;9.350;2023-08-20T14:39:05;32.30;99.70
14670;DHT22;7423;48.722;9.350;2023-08-20T14:41:32;32.30;99.50
14670;DHT22;7423;48.722;9.350;2023-08-20T14:44:00;32.30;99.20
14670;DHT22;7423;48.722;9.350;2023-08-20T14:46:27;32.40;99.20
14670;DHT22;7423;48.722;9.350;2023-08-20T14:48:54;32.40;99.20
14670;DHT22;7423;48.722;9.350;2023-08-20T14:51:22;32.50;99.50
14670;DHT22;7423;48.722;9.350;2023-08-20T14:53:49;32.40;99.40
14670;DHT22;7423;48.722;9.350;2023-08-20T14:56:16;32.40;99.60
14670;DHT22;7423;48.722;9.350;2023-08-20T14:58:43;32.40;99.10
14670;DHT22;7423;48.722;9.350;2023-08-20T15:01:10;32.30;99.20
14670;DHT22;7423;48.722;9.350;2023-08-20T15:03:37;32.40;99.60
14670;DHT22;7423;48.722;9.350;2023-08-20T15:06:04;32.40;99.40
14670;DHT22;7423;48.722;9.350;2023-08-20T15:08:31;32.40;99.30
14670;DHT22;7423;48.722;9.350;2023-08-20T15:10:59;32.40;99.20
14670;DHT22;7423;48.722;9.350;2023-08-20T15:13:31;32.30;98.80
14670;DHT22;7423;48.722;9.350;2023-08-20T15:15:58;32.30;99.40
14670;DHT22;7423;48.722;9.350;2023-08-20T15:18:25;32.20;99.60
14670;DHT22;7423;48.722;9.350;2023-08-20T15:20:59;32.20;99.70
14670;DHT22;7423;48.722;9.350;2023-08-20T15:23:28;32.30;99.80
14670;DHT22;7423;48.722;9.350;2023-08-20T15:25:55;32.30;99.60
14670;DHT22;7423;48.722;9.350;2023-08-20T15:28:23;32.30;99.70
14670;DHT22;7423;48.722;9.350;2023-08-20T15:30:57;32.40;99.60
14670;DHT22;7423;48.722;9.350;2023-08-20T15:33:24;32.40;99.90
14670;DHT22;7423;48.722;9.350;2023-08-20T15:35:51;32.30;99.90
14670;DHT22;7423;48.722;9.350;2023-08-20T15:38:18;32.30;99.90
14670;DHT22;7423;48.722;9.350;2023-08-20T15:40:45;32.30;99.90
14670;DHT22;7423;48.722;9.350;2023-08-20T15:43:12;32.30;99.90
14670;DHT22;7423;48.722;9.350;2023-08-20T15:45:39;32.40;99.90
14670;DHT22;7423;48.722;9.350;2023-08-20T15:48:07;32.40;99.90
14670;DHT22;7423;48.722;9.350;2023-08-20T15:50:34;32.40;99.90
14670;DHT22;7423;48.722;9.350;2023-08-20T15:53:01;32.40;99.90
14670;DHT22;7423;48.722;9.350;2023-08-20T15:55:29;32.50;99.90
14670;DHT22;7423;48.722;9.350;2023-08-20T15:57:56;32.40;99.90
14670;DHT22;7423;48.722;9.350;2023-08-20T16:00:23;32.40;99.90
14670;DHT22;7423;48.722;9.350;2023-08-20T16:02:50;32.50;99.90